No particular awareness of the weather is required.    There are no Weather-warnings


Meteo18 Weather Cam more information Meteo18 Weather Cam


Thunder radar more information blitzortung!


Rain radar more information rain snow radar


Visit our other weather sites:

Template documentation
and downloads

And another site



Weather Underground History page Text

Daily Summary for November 26, 2017 Units:  English    Metric   Both
« Previous Day
Next Day »
Daily Weekly Monthly Yearly Custom
  High: Low: Average:
Temperature: 43.3 °F 29.5 °F 35.8 °F
Dew Point: 38.1 °F 28.2 °F 33.4 °F
Humidity: 97 % 77 % 91 %
Wind Speed: 11 mph 0 mph 2.5 mph
Wind Gust: 13 mph - -
Wind:- - WSW
Pressure: 30.4 in 30.3 in -
Precipitation: 0.01 in    
Historical Graphs
 
 
Tabular Data for November 26, 2017
Time Temperature Dew Point Pressure Wind Wind Speed Wind Gust Humidity Rainfall Rate (Hourly)
00:02 34 °F 31.6 °F 30.3 in Calm     91 % 0 in
00:07 34.2 °F 32 °F 30.3 in Calm   1 mph 92 % 0 in
00:12 34.3 °F 32.2 °F 30.3 in Calm   1 mph 92 % 0 in
00:17 34.5 °F 32.4 °F 30.3 in Calm   1 mph 92 % 0 in
00:22 34.5 °F 32.2 °F 30.3 in Calm   1 mph 91 % 0 in
00:32 34.5 °F 32.4 °F 30.3 in West 1 mph 1 mph 92 % 0 in
00:37 34.5 °F 32.2 °F 30.3 in SW 1 mph 1 mph 91 % 0 in
00:42 34.7 °F 32.5 °F 30.3 in Calm   2 mph 92 % 0 in
00:52 34.3 °F 32 °F 30.3 in Calm   2 mph 91 % 0 in
01:02 34.2 °F 32 °F 30.3 in Calm   1 mph 92 % 0 in
01:12 34.5 °F 32.4 °F 30.3 in Calm   2 mph 92 % 0 in
01:22 34.7 °F 32.4 °F 30.3 in Calm   4 mph 91 % 0 in
01:32 34.3 °F 32 °F 30.3 in WSW 1 mph 1 mph 91 % 0 in
01:42 34.3 °F 32 °F 30.3 in SSW 1 mph 1 mph 91 % 0 in
01:52 34.2 °F 31.8 °F 30.3 in Calm   3 mph 91 % 0 in
01:57 34 °F 31.6 °F 30.3 in SW 1 mph 4 mph 91 % 0 in
02:02 33.8 °F 31.6 °F 30.3 in SW 3 mph 4 mph 92 % 0 in
02:12 34 °F 31.8 °F 30.3 in SW 2 mph 5 mph 92 % 0 in
02:17 33.6 °F 31.5 °F 30.3 in SW 3 mph 5 mph 92 % 0 in
02:22 33.4 °F 31.3 °F 30.3 in SSW 2 mph 5 mph 92 % 0 in
02:27 33.3 °F 31.1 °F 30.3 in SW 4 mph 5 mph 92 % 0 in
02:42 34 °F 32.2 °F 30.3 in West 2 mph 5 mph 93 % 0 in
02:52 34.2 °F 32 °F 30.3 in SW 2 mph 5 mph 92 % 0 in
02:57 34.2 °F 32 °F 30.3 in WSW 2 mph 4 mph 92 % 0 in
03:02 34 °F 31.8 °F 30.3 in SW 2 mph 4 mph 92 % 0 in
03:07 34 °F 31.8 °F 30.3 in WSW 3 mph 4 mph 92 % 0 in
03:12 34 °F 31.8 °F 30.3 in West 3 mph 4 mph 92 % 0 in
03:17 34 °F 31.8 °F 30.3 in WSW 1 mph 5 mph 92 % 0 in
03:22 33.4 °F 31.1 °F 30.3 in Calm   5 mph 91 % 0 in
03:27 32.9 °F 30.6 °F 30.3 in Calm   5 mph 91 % 0 in
03:37 32.5 °F 30.7 °F 30.3 in SW 3 mph 3 mph 93 % 0 in
03:42 32.4 °F 30.6 °F 30.3 in SSW 2 mph 2 mph 93 % 0 in
03:47 32 °F 30 °F 30.3 in SW 3 mph 4 mph 92 % 0 in
03:52 31.8 °F 30 °F 30.3 in SW 1 mph 4 mph 93 % 0 in
03:57 31.5 °F 29.7 °F 30.3 in SSW 3 mph 6 mph 93 % 0 in
04:02 31.3 °F 29.5 °F 30.3 in SSW 1 mph 6 mph 93 % 0 in
04:12 30.7 °F 29.3 °F 30.3 in SSW 2 mph 5 mph 94 % 0 in
04:17 30.6 °F 29.1 °F 30.3 in SSW 1 mph 4 mph 94 % 0 in
04:22 30.4 °F 28.9 °F 30.3 in SW 1 mph 4 mph 94 % 0 in
04:27 30 °F 28.6 °F 30.3 in SW 5 mph 5 mph 94 % 0 in
04:32 30.4 °F 29.1 °F 30.3 in SW 3 mph 5 mph 95 % 0 in
04:42 30.7 °F 29.5 °F 30.3 in SW 3 mph 7 mph 95 % 0 in
04:47 30.6 °F 29.3 °F 30.3 in SW 1 mph 5 mph 95 % 0 in
04:52 30.7 °F 29.5 °F 30.4 in SW 1 mph 5 mph 95 % 0 in
05:02 30.7 °F 29.5 °F 30.4 in SW 1 mph 5 mph 95 % 0 in
05:12 30.6 °F 29.3 °F 30.4 in Calm   5 mph 95 % 0 in
05:17 30.7 °F 29.7 °F 30.4 in Calm   4 mph 96 % 0 in
05:22 30.7 °F 29.7 °F 30.4 in SW 1 mph 4 mph 96 % 0 in
05:32 30.6 °F 29.3 °F 30.4 in SW 4 mph 4 mph 95 % 0 in
05:37 30.7 °F 29.7 °F 30.4 in SW 5 mph 5 mph 96 % 0 in
05:42 30.6 °F 29.3 °F 30.4 in WSW 1 mph 5 mph 95 % 0 in
05:47 30.2 °F 28.9 °F 30.4 in SSW 3 mph 5 mph 95 % 0 in
05:52 29.8 °F 28.6 °F 30.4 in SSW 2 mph 5 mph 95 % 0 in
06:02 29.5 °F 28.2 °F 30.4 in SSW 3 mph 4 mph 95 % 0 in
06:12 29.5 °F 28.4 °F 30.4 in SW 3 mph 6 mph 96 % 0 in
06:17 29.7 °F 28.6 °F 30.4 in SW 4 mph 6 mph 96 % 0 in
06:22 29.7 °F 28.6 °F 30.4 in SW 5 mph 6 mph 96 % 0 in
06:27 29.8 °F 28.8 °F 30.4 in SW 3 mph 7 mph 96 % 0 in
06:32 29.8 °F 28.8 °F 30.4 in SSW 3 mph 7 mph 96 % 0 in
06:37 29.8 °F 28.8 °F 30.4 in WSW 5 mph 7 mph 96 % 0 in
06:42 29.8 °F 28.8 °F 30.4 in SW 4 mph 7 mph 96 % 0 in
06:47 29.7 °F 28.6 °F 30.4 in SW 3 mph 7 mph 96 % 0 in
06:52 29.7 °F 28.6 °F 30.4 in SW 3 mph 7 mph 96 % 0 in
07:02 29.7 °F 28.6 °F 30.4 in SSW 2 mph 6 mph 96 % 0 in
07:12 29.8 °F 28.8 °F 30.4 in SSW 3 mph 6 mph 96 % 0 in
07:17 30 °F 28.9 °F 30.4 in SSW 1 mph 5 mph 96 % 0 in
07:22 30 °F 29.3 °F 30.4 in SW 2 mph 5 mph 97 % 0 in
07:27 30.2 °F 29.5 °F 30.4 in SSW 2 mph 4 mph 97 % 0 in
07:32 30.4 °F 29.7 °F 30.4 in SSW 1 mph 4 mph 97 % 0 in
07:42 30.6 °F 29.8 °F 30.4 in Calm   3 mph 97 % 0 in
07:47 30.9 °F 30.2 °F 30.4 in SSW 1 mph 3 mph 97 % 0 in
07:57 31.5 °F 30.7 °F 30.4 in WSW 1 mph 6 mph 97 % 0 in
08:02 31.6 °F 30.9 °F 30.4 in WSW 4 mph 6 mph 97 % 0 in
08:12 31.8 °F 31.1 °F 30.4 in SW 7 mph 7 mph 97 % 0 in
08:17 31.8 °F 31.1 °F 30.4 in WSW 3 mph 8 mph 97 % 0 in
08:22 31.8 °F 31.1 °F 30.4 in SW 1 mph 8 mph 97 % 0 in
08:32 31.8 °F 31.1 °F 30.4 in WSW 4 mph 8 mph 97 % 0 in
08:42 31.8 °F 31.1 °F 30.4 in SW 1 mph 7 mph 97 % 0 in
08:47 31.8 °F 31.1 °F 30.4 in WSW 4 mph 6 mph 97 % 0 in
08:52 31.8 °F 31.1 °F 30.4 in West 6 mph 6 mph 97 % 0 in
09:02 31.8 °F 31.1 °F 30.4 in WSW 3 mph 8 mph 97 % 0 in
09:07 32 °F 31.3 °F 30.4 in West 4 mph 8 mph 97 % 0 in
09:12 32 °F 31.3 °F 30.4 in SW 5 mph 8 mph 97 % 0 in
09:17 32.2 °F 31.5 °F 30.4 in WSW 2 mph 7 mph 97 % 0 in
09:22 32.2 °F 31.5 °F 30.4 in WSW 5 mph 7 mph 97 % 0 in
09:32 32.2 °F 31.5 °F 30.4 in WSW 2 mph 7 mph 97 % 0 in
09:42 32.2 °F 31.5 °F 30.4 in Calm   7 mph 97 % 0 in
09:47 32.2 °F 31.5 °F 30.4 in Calm   4 mph 97 % 0 in
09:52 32.2 °F 31.5 °F 30.4 in SSE 1 mph 4 mph 97 % 0 in
09:57 32.4 °F 31.6 °F 30.4 in SSW 2 mph 6 mph 97 % 0 in
10:02 32.4 °F 31.6 °F 30.4 in WSW 3 mph 6 mph 97 % 0 in
10:07 32.5 °F 31.8 °F 30.4 in SW 2 mph 4 mph 97 % 0.01 in
10:17 32.7 °F 32 °F 30.4 in SSW 3 mph 4 mph 97 % 0.01 in
10:22 32.7 °F 32 °F 30.4 in Calm   4 mph 97 % 0.01 in
10:32 32.9 °F 32.2 °F 30.4 in Calm   6 mph 97 % 0.01 in
10:42 33.3 °F 32.5 °F 30.4 in Calm   5 mph 97 % 0.01 in
10:47 33.4 °F 32.7 °F 30.4 in SW 1 mph 4 mph 97 % 0.01 in
10:57 34 °F 33.3 °F 30.4 in WSW 2 mph 2 mph 97 % 0 in
11:02 34 °F 33.3 °F 30.4 in WSW 3 mph 3 mph 97 % 0 in
11:12 34.2 °F 33.4 °F 30.4 in WSW 4 mph 6 mph 97 % 0 in
11:17 34.3 °F 33.6 °F 30.4 in WSW 4 mph 6 mph 97 % 0 in
11:22 34.9 °F 34.2 °F 30.4 in West 1 mph 6 mph 97 % 0 in
11:32 36.1 °F 35.4 °F 30.4 in WNW 1 mph 7 mph 97 % 0 in
11:37 36.7 °F 36 °F 30.4 in WSW 3 mph 6 mph 97 % 0 in
11:47 37.2 °F 36.5 °F 30.4 in SW 1 mph 7 mph 97 % 0 in
11:52 37.2 °F 36.5 °F 30.4 in West 3 mph 7 mph 97 % 0 in
12:02 36.9 °F 35.8 °F 30.4 in West 2 mph 7 mph 96 % 0 in
12:07 36.7 °F 35.4 °F 30.4 in SW 4 mph 8 mph 95 % 0 in
12:12 36.9 °F 35.6 °F 30.4 in SSW 2 mph 8 mph 95 % 0 in
12:17 37.2 °F 36.1 °F 30.4 in SSW 1 mph 8 mph 96 % 0 in
12:22 37.6 °F 36.3 °F 30.4 in WSW 3 mph 8 mph 95 % 0 in
12:37 37.6 °F 35.4 °F 30.4 in WSW 3 mph 7 mph 92 % 0 in
12:42 37.2 °F 35.4 °F 30.4 in WSW 4 mph 7 mph 93 % 0 in
12:52 37.2 °F 35.6 °F 30.4 in SSE 4 mph 9 mph 94 % 0 in
12:57 37 °F 35.2 °F 30.4 in SSW 2 mph 7 mph 93 % 0 in
13:02 37.2 °F 35.6 °F 30.4 in South 2 mph 7 mph 94 % 0 in
13:12 38.3 °F 37 °F 30.4 in WSW 6 mph 6 mph 95 % 0 in
13:22 39.2 °F 36.9 °F 30.4 in West 7 mph 8 mph 91 % 0 in
13:32 39.7 °F 37 °F 30.4 in WNW 6 mph 9 mph 90 % 0 in
13:42 40.5 °F 37.2 °F 30.4 in NW 1 mph 9 mph 88 % 0 in
13:47 40.6 °F 36.9 °F 30.4 in NW 3 mph 8 mph 86 % 0 in
13:52 40.6 °F 36.5 °F 30.4 in NW 2 mph 8 mph 85 % 0 in
13:57 41.2 °F 37 °F 30.4 in WNW 2 mph 10 mph 85 % 0 in
14:02 41.2 °F 36.7 °F 30.4 in West 4 mph 10 mph 84 % 0 in
14:12 41.4 °F 36.5 °F 30.4 in WSW 2 mph 8 mph 83 % 0 in
14:17 41.5 °F 37 °F 30.4 in West 2 mph 9 mph 84 % 0 in
14:27 41.9 °F 37 °F 30.4 in West 5 mph 9 mph 83 % 0 in
14:32 42.1 °F 37.6 °F 30.4 in West 4 mph 9 mph 84 % 0 in
14:42 42.3 °F 37.8 °F 30.4 in SW 5 mph 10 mph 84 % 0 in
14:47 42.4 °F 37.6 °F 30.4 in West 4 mph 10 mph 83 % 0 in
14:57 42.4 °F 37.6 °F 30.4 in West 6 mph 8 mph 83 % 0 in
15:02 42.8 °F 37.4 °F 30.4 in West 3 mph 8 mph 81 % 0 in
15:12 43.3 °F 37.9 °F 30.4 in SW 3 mph 8 mph 81 % 0 in
15:17 43.2 °F 38.1 °F 30.4 in SW 4 mph 9 mph 82 % 0 in
15:22 43.2 °F 36.7 °F 30.4 in WNW 11 mph 11 mph 78 % 0 in
15:27 43.3 °F 36.7 °F 30.4 in West 8 mph 13 mph 77 % 0 in
15:32 43.3 °F 36.7 °F 30.4 in West 8 mph 13 mph 77 % 0 in
15:37 43.2 °F 36.7 °F 30.4 in WNW 2 mph 13 mph 78 % 0 in
15:42 43 °F 36.9 °F 30.4 in WNW 3 mph 13 mph 79 % 0 in
15:52 42.6 °F 36.3 °F 30.4 in West 5 mph 11 mph 78 % 0 in
15:57 42.4 °F 36.7 °F 30.4 in West 5 mph 10 mph 80 % 0 in
16:02 42.3 °F 37.2 °F 30.4 in West 5 mph 10 mph 82 % 0 in
16:07 42.1 °F 37.2 °F 30.4 in West 5 mph 8 mph 83 % 0 in
16:12 41.9 °F 37 °F 30.4 in West 4 mph 8 mph 83 % 0 in
16:17 41.7 °F 36.9 °F 30.4 in West 2 mph 8 mph 83 % 0 in
16:22 41.7 °F 36.9 °F 30.4 in WSW 3 mph 8 mph 83 % 0 in
16:27 41.5 °F 37 °F 30.4 in West 4 mph 8 mph 84 % 0 in
16:32 41.5 °F 37 °F 30.4 in West 4 mph 8 mph 84 % 0 in
16:37 41.4 °F 36.9 °F 30.4 in WSW 1 mph 6 mph 84 % 0 in
16:42 41.4 °F 36.9 °F 30.4 in WSW 3 mph 6 mph 84 % 0 in
16:47 41.2 °F 37 °F 30.4 in WSW 3 mph 7 mph 85 % 0 in
16:52 41.2 °F 37 °F 30.4 in West 2 mph 7 mph 85 % 0 in
16:57 40.8 °F 36.7 °F 30.4 in WSW 3 mph 6 mph 85 % 0 in
17:02 40.8 °F 37 °F 30.4 in WSW 2 mph 6 mph 86 % 0 in
17:12 40.5 °F 36.9 °F 30.4 in West 4 mph 6 mph 87 % 0 in
17:17 40.3 °F 36.7 °F 30.4 in WNW 2 mph 4 mph 87 % 0 in
17:22 39.9 °F 36.3 °F 30.4 in West 1 mph 4 mph 87 % 0 in
17:27 39.7 °F 36.5 °F 30.4 in WSW 2 mph 4 mph 88 % 0 in
17:32 39.7 °F 36.1 °F 30.4 in WNW 3 mph 4 mph 87 % 0 in
17:42 39.6 °F 36.3 °F 30.4 in West 2 mph 4 mph 88 % 0 in
17:52 39.4 °F 36.1 °F 30.4 in West 3 mph 4 mph 88 % 0 in
17:57 39.4 °F 36.1 °F 30.4 in West 3 mph 5 mph 88 % 0 in
18:12 39.4 °F 35.8 °F 30.4 in West 3 mph 5 mph 87 % 0 in
18:17 39.2 °F 35.6 °F 30.4 in West 3 mph 6 mph 87 % 0 in
18:22 39 °F 35.4 °F 30.4 in West 3 mph 6 mph 87 % 0 in
18:32 39 °F 35.4 °F 30.4 in West 4 mph 6 mph 87 % 0 in
18:37 39 °F 35.4 °F 30.4 in West 4 mph 6 mph 87 % 0 in
18:42 39 °F 35.4 °F 30.4 in WSW 4 mph 7 mph 87 % 0 in
18:47 39.2 °F 35.6 °F 30.4 in West 4 mph 7 mph 87 % 0 in
18:52 39.2 °F 35.6 °F 30.4 in West 3 mph 7 mph 87 % 0 in
18:57 39.4 °F 35.8 °F 30.4 in WSW 3 mph 7 mph 87 % 0 in
19:07 39.4 °F 35.8 °F 30.4 in West 6 mph 7 mph 87 % 0 in
19:12 39.4 °F 35.8 °F 30.4 in West 4 mph 7 mph 87 % 0 in
19:17 39.2 °F 36 °F 30.4 in WSW 4 mph 7 mph 88 % 0 in
19:22 39 °F 35.8 °F 30.4 in WSW 5 mph 7 mph 88 % 0 in
19:27 39 °F 35.8 °F 30.4 in West 3 mph 7 mph 88 % 0 in
19:32 38.8 °F 35.6 °F 30.4 in West 3 mph 7 mph 88 % 0 in
19:37 38.7 °F 35.4 °F 30.4 in West 3 mph 7 mph 88 % 0 in
19:42 38.5 °F 35.2 °F 30.4 in WNW 2 mph 7 mph 88 % 0 in
19:47 38.5 °F 35.2 °F 30.4 in West 3 mph 7 mph 88 % 0 in
19:57 38.5 °F 35.2 °F 30.4 in WNW 4 mph 7 mph 88 % 0 in
20:07 38.7 °F 35.8 °F 30.4 in WSW 2 mph 7 mph 89 % 0 in
20:12 38.7 °F 35.8 °F 30.4 in West 3 mph 7 mph 89 % 0 in
20:17 38.5 °F 35.6 °F 30.4 in West 3 mph 8 mph 89 % 0 in
20:22 38.5 °F 35.6 °F 30.4 in WSW 5 mph 8 mph 89 % 0 in
20:27 38.5 °F 35.6 °F 30.4 in West 3 mph 6 mph 89 % 0 in
20:32 38.3 °F 35.4 °F 30.4 in West 3 mph 6 mph 89 % 0 in
20:42 38.7 °F 35.8 °F 30.4 in West 3 mph 7 mph 89 % 0 in
20:52 38.5 °F 35.6 °F 30.4 in WSW 2 mph 7 mph 89 % 0 in
20:57 38.3 °F 35.4 °F 30.4 in West 4 mph 8 mph 89 % 0 in
21:02 37.9 °F 35.1 °F 30.4 in WNW 3 mph 8 mph 89 % 0 in
21:07 37.8 °F 34.9 °F 30.4 in WSW 3 mph 8 mph 89 % 0 in
21:17 37.6 °F 34.9 °F 30.4 in West 4 mph 5 mph 90 % 0 in
21:22 37.6 °F 34.9 °F 30.4 in WSW 2 mph 5 mph 90 % 0 in
21:32 37.6 °F 34.9 °F 30.4 in WNW 3 mph 5 mph 90 % 0 in
21:42 37.2 °F 34.5 °F 30.4 in WNW 4 mph 6 mph 90 % 0 in
21:47 37 °F 34.7 °F 30.4 in West 3 mph 6 mph 91 % 0 in
21:52 37.2 °F 34.9 °F 30.4 in West 3 mph 6 mph 91 % 0 in
21:57 37.2 °F 34.9 °F 30.4 in West 4 mph 5 mph 91 % 0 in
22:07 37 °F 34.7 °F 30.4 in Calm   4 mph 91 % 0 in
22:12 36.9 °F 34.5 °F 30.4 in Calm   4 mph 91 % 0 in
22:17 36.9 °F 34.5 °F 30.4 in Calm   3 mph 91 % 0 in
22:27 36.9 °F 34.5 °F 30.4 in Calm   2 mph 91 % 0 in
22:32 36.9 °F 34.5 °F 30.4 in Calm   2 mph 91 % 0 in
22:37 36.5 °F 34.2 °F 30.4 in Calm   1 mph 91 % 0 in
22:42 36.1 °F 33.8 °F 30.4 in Calm   1 mph 91 % 0 in
22:47 36.3 °F 34.2 °F 30.4 in Calm   1 mph 92 % 0 in
22:52 36.3 °F 34.2 °F 30.4 in Calm   1 mph 92 % 0 in
22:57 36 °F 33.8 °F 30.4 in Calm   1 mph 92 % 0 in
23:02 35.4 °F 33.3 °F 30.4 in Calm   1 mph 92 % 0 in
23:12 34.9 °F 33.1 °F 30.4 in Calm   2 mph 93 % 0 in
23:22 33.8 °F 31.6 °F 30.4 in Calm   3 mph 92 % 0 in
23:32 34.3 °F 33.1 °F 30.4 in Calm   3 mph 95 % 0 in
23:37 34.5 °F 33.3 °F 30.4 in SW 1 mph 3 mph 95 % 0 in
23:42 34.5 °F 33.3 °F 30.4 in WSW 1 mph 3 mph 95 % 0 in
23:47 34.3 °F 32.7 °F 30.4 in SW 1 mph 2 mph 94 % 0 in
23:52 34.2 °F 32.5 °F 30.4 in West 2 mph 2 mph 94 % 0 in
23:57 34.3 °F 33.1 °F 30.4 in West 1 mph 3 mph 95 % 0 in
Meteo18
Compliments of Weather Underground - 4 mb

Script developed by  Jim McMurry - jmcmurry@mwt.net Adapted for the template by  Wim van der Kuil - Leuven-Template.eu

You find our weather info also at:

European Weather Network

Weather Underground

Equipment we use:

Weather-station
Davis Vue

Weather-program
Meteohub

Weather-server
Raspberry PI 2 B+

Provider
1 and 1

Davis Vue

Meteohub

Raspberry PI 2 B+

1 and 1